createdAt,value
2022-11-07T00:05:42.162Z,3.07
2022-11-07T00:11:35.649Z,3.03
2022-11-07T00:17:28.560Z,2.50
2022-11-07T00:23:23.750Z,3.30
2022-11-07T00:29:18.649Z,2.73
2022-11-07T00:35:12.015Z,3.10
2022-11-07T00:41:07.732Z,2.40
2022-11-07T00:47:01.060Z,2.93
2022-11-07T00:52:54.528Z,2.67
2022-11-07T00:58:49.448Z,2.67
2022-11-07T01:05:01.229Z,2.50
2022-11-07T01:10:54.894Z,3.10
2022-11-07T01:16:49.577Z,2.63
2022-11-07T01:22:42.599Z,2.70
2022-11-07T01:28:38.105Z,2.37
2022-11-07T01:34:32.780Z,2.90
2022-11-07T01:40:26.232Z,2.07
2022-11-07T01:46:20.332Z,2.30
2022-11-07T01:52:18.529Z,2.27
2022-11-07T01:58:12.008Z,2.57
2022-11-07T02:04:06.854Z,2.37
2022-11-07T02:10:02.791Z,2.40
2022-11-07T02:15:56.456Z,2.23
2022-11-07T02:21:55.641Z,2.70
2022-11-07T02:27:53.958Z,2.10
2022-11-07T02:33:47.252Z,2.40
2022-11-07T02:39:40.586Z,2.10
2022-11-07T02:45:38.737Z,2.00
2022-11-07T02:51:31.765Z,1.60
2022-11-07T02:57:25.050Z,2.10
2022-11-07T03:03:19.300Z,2.33
2022-11-07T03:09:12.616Z,1.90
2022-11-07T03:15:06.486Z,2.30
2022-11-07T03:21:01.199Z,1.80
2022-11-07T03:26:54.598Z,2.10
2022-11-07T03:32:48.751Z,1.70
2022-11-07T03:38:43.449Z,2.07
2022-11-07T03:44:36.766Z,2.17
2022-11-07T03:50:30.057Z,1.83
2022-11-07T03:56:24.716Z,2.37
2022-11-07T04:02:18.197Z,2.00
2022-11-07T04:08:11.302Z,2.10
2022-11-07T04:14:22.605Z,1.83
2022-11-07T04:20:15.529Z,1.93
2022-11-07T04:26:26.418Z,1.97
2022-11-07T04:32:21.025Z,2.13
2022-11-07T04:38:14.517Z,2.07
2022-11-07T04:44:07.884Z,2.60
2022-11-07T04:50:02.688Z,2.33
2022-11-07T04:55:55.645Z,2.80
2022-11-07T05:01:49.058Z,2.10
2022-11-07T05:07:44.352Z,2.27
2022-11-07T05:13:37.718Z,1.90
2022-11-07T05:19:30.792Z,2.70
2022-11-07T05:25:26.537Z,2.13
2022-11-07T05:31:26.194Z,1.80
2022-11-07T05:37:39.979Z,2.00
2022-11-07T05:43:34.833Z,2.00
2022-11-07T05:49:28.151Z,2.43
2022-11-07T05:55:27.975Z,2.33
2022-11-07T06:01:23.322Z,2.20
2022-11-07T06:07:16.777Z,2.23
2022-11-07T06:13:13.692Z,2.40
2022-11-07T06:19:08.636Z,2.30
2022-11-07T06:25:01.942Z,2.30
2022-11-07T06:30:55.281Z,2.30
2022-11-07T06:37:01.516Z,2.03
2022-11-07T06:42:56.783Z,2.50
2022-11-07T06:48:50.702Z,2.73
2022-11-07T06:54:45.597Z,2.83
2022-11-07T07:00:39.006Z,2.33
2022-11-07T07:06:32.594Z,2.37
2022-11-07T07:12:27.881Z,2.60
2022-11-07T07:18:21.925Z,2.40
2022-11-07T07:24:15.195Z,2.07
2022-11-07T07:30:11.627Z,2.80
2022-11-07T07:36:05.498Z,2.40
2022-11-07T07:41:58.581Z,2.07
2022-11-07T07:47:53.838Z,2.43
2022-11-07T07:53:47.182Z,2.03
2022-11-07T07:59:40.482Z,2.03
2022-11-07T08:05:35.525Z,2.50
2022-11-07T08:11:28.891Z,2.43
2022-11-07T08:17:22.175Z,2.27
2022-11-07T08:23:17.179Z,2.37
2022-11-07T08:29:10.520Z,2.10
2022-11-07T08:35:03.846Z,2.07
2022-11-07T08:40:59.206Z,2.23
2022-11-07T08:46:52.575Z,2.40
2022-11-07T08:52:45.437Z,2.30
2022-11-07T08:58:40.105Z,2.80
2022-11-07T09:04:33.437Z,2.30
2022-11-07T09:10:26.580Z,2.40
2022-11-07T09:16:21.639Z,2.57
2022-11-07T09:22:15.388Z,2.47
2022-11-07T09:28:08.333Z,2.40
2022-11-07T09:34:02.968Z,2.60
2022-11-07T09:39:56.769Z,2.00
2022-11-07T09:45:57.044Z,2.67
2022-11-07T09:51:57.597Z,2.00
2022-11-07T09:57:53.853Z,2.40
2022-11-07T10:10:07.733Z,2.07
2022-11-07T10:16:10.400Z,2.60
2022-11-07T10:22:15.124Z,2.60
2022-11-07T10:28:16.520Z,2.67
2022-11-07T10:34:16.759Z,2.30
2022-11-07T10:40:17.601Z,2.30
2022-11-07T10:46:19.357Z,2.83
2022-11-07T10:52:20.086Z,2.63
2022-11-07T10:58:20.158Z,2.60
2022-11-07T11:04:23.662Z,2.60
2022-11-07T11:10:21.883Z,2.73
2022-11-07T11:16:26.650Z,2.40
2022-11-07T11:22:24.821Z,2.33
2022-11-07T11:28:25.011Z,2.87
2022-11-07T11:34:23.958Z,3.30
2022-11-07T11:40:22.561Z,2.90
2022-11-07T11:46:23.092Z,2.60
2022-11-07T11:52:18.262Z,3.20
2022-11-07T11:58:23.504Z,2.70
2022-11-07T12:04:42.194Z,3.13
2022-11-07T12:10:41.523Z,3.33
2022-11-07T12:16:41.632Z,2.70
2022-11-07T12:22:47.502Z,2.73
2022-11-07T12:28:48.412Z,3.30
2022-11-07T12:34:59.215Z,2.80
2022-11-07T12:40:59.131Z,3.30
2022-11-07T12:46:55.256Z,2.63
2022-11-07T12:53:02.384Z,2.70
2022-11-07T12:58:56.341Z,2.57
2022-11-07T13:04:57.325Z,2.30
2022-11-07T13:10:59.233Z,2.30
2022-11-07T13:16:55.107Z,3.13
2022-11-07T13:22:49.566Z,3.00
2022-11-07T13:28:45.260Z,2.50
2022-11-07T13:34:48.193Z,2.40
2022-11-07T13:40:46.762Z,2.40
2022-11-07T13:46:50.719Z,2.20
2022-11-07T13:52:51.693Z,2.40
2022-11-07T13:58:46.101Z,1.90
2022-11-07T14:05:02.525Z,2.53
2022-11-07T14:10:55.165Z,2.03
2022-11-07T14:16:48.645Z,2.50
2022-11-07T14:22:50.040Z,2.47
2022-11-07T14:28:43.801Z,2.20
2022-11-07T14:34:43.953Z,2.30
2022-11-07T14:40:38.881Z,2.47
2022-11-07T14:46:32.586Z,2.20
2022-11-07T14:52:28.287Z,2.40
2022-11-07T14:58:24.976Z,2.60
2022-11-07T15:04:29.847Z,2.63
2022-11-07T15:10:30.730Z,2.47
2022-11-07T15:16:26.740Z,2.70
2022-11-07T15:22:29.909Z,2.93
2022-11-07T15:28:26.013Z,2.33
2022-11-07T15:34:39.274Z,2.50
2022-11-07T15:40:35.830Z,2.33
2022-11-07T15:46:35.374Z,2.60
2022-11-07T15:52:55.256Z,2.27
2022-11-07T15:58:48.883Z,2.10
2022-11-07T16:04:41.985Z,1.90
2022-11-07T16:10:36.676Z,2.17
2022-11-07T16:16:34.511Z,2.10
2022-11-07T16:22:27.886Z,2.87
2022-11-07T16:28:30.365Z,2.23
2022-11-07T16:34:23.732Z,2.03
2022-11-07T16:40:19.739Z,2.47
2022-11-07T16:46:19.508Z,2.27
2022-11-07T16:52:14.838Z,1.93
2022-11-07T16:58:20.793Z,3.23
2022-11-07T17:04:15.515Z,2.70
2022-11-07T17:10:11.804Z,2.87
2022-11-07T17:16:05.764Z,2.10
2022-11-07T17:22:01.673Z,2.50
2022-11-07T17:27:54.929Z,2.60
2022-11-07T17:33:48.764Z,2.00
2022-11-07T17:39:48.375Z,2.73
2022-11-07T17:45:42.196Z,2.83
2022-11-07T17:51:36.284Z,3.20
2022-11-07T17:57:30.985Z,2.60
2022-11-07T18:03:24.296Z,2.90
2022-11-07T18:09:17.844Z,2.90
2022-11-07T18:15:13.396Z,3.23
2022-11-07T18:21:07.061Z,3.80
2022-11-07T18:27:00.399Z,3.30
2022-11-07T18:32:55.090Z,3.10
2022-11-07T18:38:48.932Z,3.53
2022-11-07T18:44:42.460Z,3.30
2022-11-07T18:50:40.339Z,3.50
2022-11-07T18:56:33.656Z,3.07
2022-11-07T19:02:28.918Z,3.97
2022-11-07T19:08:23.783Z,3.53
2022-11-07T19:14:17.092Z,3.63
2022-11-07T19:20:11.301Z,3.53
2022-11-07T19:26:06.369Z,3.63
2022-11-07T19:31:59.735Z,3.50
2022-11-07T19:37:52.641Z,3.70
2022-11-07T19:43:50.340Z,3.27
2022-11-07T19:49:43.679Z,3.53
2022-11-07T19:55:37.542Z,2.63
2022-11-07T20:01:34.294Z,3.30
2022-11-07T20:07:27.616Z,3.37
2022-11-07T20:13:20.997Z,3.03
2022-11-07T20:19:15.914Z,2.80
2022-11-07T20:25:10.416Z,3.27
2022-11-07T20:31:08.846Z,3.10
2022-11-07T20:37:03.506Z,3.67
2022-11-07T20:42:56.908Z,2.40
2022-11-07T20:48:50.687Z,2.80
2022-11-07T20:54:45.419Z,2.93
2022-11-07T21:00:41.022Z,2.90
2022-11-07T21:06:34.877Z,3.13
2022-11-07T21:12:29.624Z,2.57
2022-11-07T21:18:22.959Z,2.40
2022-11-07T21:24:16.306Z,2.70
2022-11-07T21:30:12.801Z,2.60
2022-11-07T21:36:10.701Z,2.50
2022-11-07T21:42:12.616Z,2.90
2022-11-07T21:48:07.692Z,2.23
2022-11-07T21:54:01.601Z,2.70
2022-11-07T21:59:54.975Z,2.10
2022-11-07T22:05:49.873Z,2.70
2022-11-07T22:11:43.379Z,2.63
2022-11-07T22:17:36.693Z,2.33
2022-11-07T22:23:33.657Z,1.97
2022-11-07T22:29:26.962Z,2.43
2022-11-07T22:35:20.360Z,1.93
2022-11-07T22:41:18.226Z,2.20
2022-11-07T22:47:11.494Z,1.77
2022-11-07T22:53:05.119Z,1.80
2022-11-07T22:59:00.088Z,1.80
2022-11-07T23:04:53.393Z,2.23
2022-11-07T23:10:46.705Z,1.97
2022-11-07T23:16:44.466Z,1.83
2022-11-07T23:22:37.687Z,1.93
2022-11-07T23:28:31.124Z,1.83
2022-11-07T23:34:26.325Z,1.60
2022-11-07T23:40:19.628Z,1.70
2022-11-07T23:46:32.073Z,1.53
2022-11-07T23:52:26.718Z,1.93
2022-11-07T23:58:37.446Z,1.43
